Mauston, WI

9:24 AM CST on February 14, 2016 (GMT -0600)
Juneau County Weather | | Change Station
CLOSE
Current Station
Personal Weather Station
Location: Mauston, WI
Elevation: 873 ft
Nearby Weather Stations

Elev 873 ft 43.80 °N, 90.07 °W | Updated 6 seconds ago

Overcast
Overcast
9.9 °F
Feels Like 4 °F
N
3.1
Wind Variable Wind from SSE
Gusts 6.9 mph

Today
High -- | Low -- °F
--% Chance of Precip.
Yesterday
High -- | Low -- °F
Precip. -- in
Pressure 30.17 in
Visibility 10.0 miles
Clouds Mostly Cloudy 2300 ft
Mostly Cloudy 6000 ft
Overcast 10000 ft
Windchill 4 °F
Dew Point 1 °F
Humidity 66%
Rainfall 0.00 in
Snow Depth Not available.
7:01 AM 5:28 PM
Waxing Crescent, 42% visible
SPECI KVOK 141507Z 13008KT 10SM -SN BKN023 BKN060 OVC100 M13/M18 A3017 RMK AO2A
Pressure 30.17 in
Visibility 10.0 miles
Clouds Mostly Cloudy 2300 ft
Mostly Cloudy 6000 ft
Overcast 10000 ft
Windchill 4 °F
Dew Point 1 °F
Humidity 66%
Rainfall 0.00 in
Snow Depth Not available.
7:01 AM 5:28 PM
Waxing Crescent, 42% visible
SPECI KVOK 141507Z 13008KT 10SM -SN BKN023 BKN060 OVC100 M13/M18 A3017 RMK AO2A

10-Day Weather Forecast

Almanac

Astronomy

Feb. 14, 2016 Rise Set
Actual Time
Civil Twilight
Nautical Twilight
Astronomical Twilight
Moon
Length of Visible Light
Length of Day
Tomorrow will be .
, % of the Moon is Illuminated

Today's Extremes

State Highs State Lows

Community

WunderPhotos

Upload Photos

1,892,791 photos uploaded!

WunderBlog® & News

Nearby

Air Quality

  Air Quality AQ Index Pollutant
Not available.

Snow Depth

Station Depth Elevation

Earthquake Activity

City Distance Mag. Time & Date
Minimum magnitude displayed is 2.5.

Coastal Water Temperatures

Place Temperature

Stations

Nearby Weather Stations

Station Location Temp. Windchill Dew Point Humidity Wind Precip. Elev Updated Type
                   

Watches & Warnings

There are currently no watches in effect.